createdAt,value
2022-08-28T00:01:15.978Z,65.39
2022-08-28T00:04:02.435Z,65.11
2022-08-28T00:06:47.980Z,64.70
2022-08-28T00:09:33.666Z,64.71
2022-08-28T00:12:19.552Z,65.00
2022-08-28T00:15:09.701Z,64.83
2022-08-28T00:17:59.459Z,64.58
2022-08-28T00:20:46.518Z,64.16
2022-08-28T00:23:42.745Z,64.57
2022-08-28T00:26:47.469Z,65.25
2022-08-28T00:29:34.015Z,65.35
2022-08-28T00:32:28.781Z,65.51
2022-08-28T00:35:14.271Z,65.18
2022-08-28T00:38:00.521Z,64.93
2022-08-28T00:40:48.901Z,65.18
2022-08-28T00:43:42.369Z,65.32
2022-08-28T00:46:27.812Z,65.16
2022-08-28T00:49:17.365Z,64.84
2022-08-28T00:52:11.816Z,64.63
2022-08-28T00:55:14.124Z,64.55
2022-08-28T00:58:01.053Z,64.79
2022-08-28T01:00:46.619Z,65.05
2022-08-28T01:03:32.469Z,65.40
2022-08-28T01:06:20.859Z,65.30
2022-08-28T01:09:06.547Z,65.75
2022-08-28T01:11:56.458Z,66.08
2022-08-28T01:14:46.009Z,66.25
2022-08-28T01:17:34.950Z,66.57
2022-08-28T01:20:25.967Z,67.02
2022-08-28T01:23:36.094Z,66.85
2022-08-28T01:26:22.841Z,67.17
2022-08-28T01:29:09.613Z,67.17
2022-08-28T01:31:55.417Z,67.45
2022-08-28T01:34:41.310Z,67.42
2022-08-28T01:37:26.953Z,67.43
2022-08-28T01:40:17.635Z,67.37
2022-08-28T01:43:12.694Z,67.10
2022-08-28T01:46:02.267Z,66.96
2022-08-28T01:48:48.799Z,66.97
2022-08-28T01:51:35.182Z,67.33
2022-08-28T01:54:26.298Z,67.15
2022-08-28T01:57:12.803Z,67.20
2022-08-28T01:59:58.821Z,67.25
2022-08-28T02:02:44.368Z,67.08
2022-08-28T02:05:32.650Z,67.01
2022-08-28T02:08:18.635Z,66.53
2022-08-28T02:11:06.441Z,66.10
2022-08-28T02:13:54.258Z,66.27
2022-08-28T02:16:39.952Z,66.34
2022-08-28T02:19:25.419Z,66.40
2022-08-28T02:22:13.451Z,66.73
2022-08-28T02:25:00.455Z,66.41
2022-08-28T02:27:46.179Z,66.11
2022-08-28T02:30:32.206Z,65.97
2022-08-28T02:33:18.046Z,65.87
2022-08-28T02:36:03.656Z,66.19
2022-08-28T02:38:54.145Z,66.37
2022-08-28T02:41:43.422Z,66.37
2022-08-28T02:44:28.876Z,66.28
2022-08-28T02:47:15.323Z,66.21
2022-08-28T02:50:00.984Z,66.36
2022-08-28T02:52:47.218Z,66.06
2022-08-28T02:55:34.313Z,66.07
2022-08-28T02:58:20.238Z,66.25
2022-08-28T03:01:07.701Z,66.54
2022-08-28T03:03:53.588Z,66.73
2022-08-28T03:06:39.329Z,67.06
2022-08-28T03:09:27.390Z,67.09
2022-08-28T03:12:17.128Z,67.00
2022-08-28T03:15:03.838Z,67.10
2022-08-28T03:17:49.723Z,67.07
2022-08-28T03:20:36.107Z,66.61
2022-08-28T03:23:27.503Z,66.25
2022-08-28T03:26:20.827Z,66.67
2022-08-28T03:29:07.489Z,67.16
2022-08-28T03:31:53.654Z,67.63
2022-08-28T03:34:41.231Z,67.84
2022-08-28T03:37:27.276Z,67.54
2022-08-28T03:40:25.900Z,67.78
2022-08-28T03:43:17.566Z,68.14
2022-08-28T03:46:06.765Z,68.30
2022-08-28T03:48:55.312Z,68.23
2022-08-28T03:51:42.688Z,68.75
2022-08-28T03:54:32.120Z,68.82
2022-08-28T03:57:21.386Z,69.28
2022-08-28T04:00:12.695Z,68.92
2022-08-28T04:02:58.658Z,68.77
2022-08-28T04:05:47.374Z,68.84
2022-08-28T04:08:34.589Z,68.95
2022-08-28T04:11:21.041Z,69.03
2022-08-28T04:14:07.192Z,69.47
2022-08-28T04:16:53.070Z,69.45
2022-08-28T04:19:39.824Z,69.74
2022-08-28T04:22:29.349Z,69.98
2022-08-28T04:25:16.526Z,69.93
2022-08-28T04:28:04.368Z,69.83
2022-08-28T04:30:55.903Z,69.76
2022-08-28T04:33:44.457Z,69.83
2022-08-28T04:36:31.993Z,70.36
2022-08-28T04:39:17.953Z,70.78
2022-08-28T04:42:03.566Z,71.34
2022-08-28T04:44:49.539Z,71.51
2022-08-28T04:47:38.948Z,71.53
2022-08-28T04:50:25.646Z,71.70
2022-08-28T04:53:20.850Z,71.73
2022-08-28T04:56:11.788Z,71.74
2022-08-28T04:58:58.466Z,72.01
2022-08-28T05:01:44.728Z,72.45
2022-08-28T05:04:32.811Z,72.00
2022-08-28T05:07:23.827Z,71.88
2022-08-28T05:10:11.596Z,71.23
2022-08-28T05:13:01.856Z,71.08
2022-08-28T05:15:52.160Z,71.04
2022-08-28T05:18:40.600Z,70.58
2022-08-28T05:21:29.506Z,69.49
2022-08-28T05:24:26.152Z,68.21
2022-08-28T05:27:14.107Z,67.99
2022-08-28T05:30:08.794Z,67.12
2022-08-28T05:32:57.791Z,66.91
2022-08-28T05:35:47.662Z,66.07
2022-08-28T05:38:42.131Z,65.83
2022-08-28T05:41:31.103Z,65.40
2022-08-28T05:44:18.229Z,65.05
2022-08-28T05:47:04.498Z,65.23
2022-08-28T05:49:51.509Z,64.78
2022-08-28T05:52:38.065Z,65.06
2022-08-28T05:55:23.844Z,65.04
2022-08-28T05:58:30.455Z,64.97
2022-08-28T06:01:25.204Z,65.27
2022-08-28T06:04:26.878Z,65.34
2022-08-28T06:07:22.323Z,65.12
2022-08-28T06:10:10.768Z,64.98
2022-08-28T06:12:57.325Z,64.98
2022-08-28T06:15:45.554Z,65.15
2022-08-28T06:18:32.707Z,65.76
2022-08-28T06:21:20.889Z,64.39
2022-08-28T06:24:08.475Z,64.21
2022-08-28T06:26:56.529Z,64.06
2022-08-28T06:29:45.947Z,63.94
2022-08-28T06:32:34.986Z,63.54
2022-08-28T06:35:21.899Z,62.84
2022-08-28T06:38:09.811Z,62.36
2022-08-28T06:40:57.227Z,61.34
2022-08-28T06:43:44.726Z,61.42
2022-08-28T06:46:36.703Z,61.08
2022-08-28T06:49:28.183Z,61.44
2022-08-28T06:52:24.519Z,60.87
2022-08-28T06:55:12.230Z,60.39
2022-08-28T06:57:59.341Z,61.32
2022-08-28T07:00:46.328Z,60.89
2022-08-28T07:03:33.416Z,60.66
2022-08-28T07:06:22.559Z,60.68
2022-08-28T07:09:13.367Z,60.20
2022-08-28T07:11:59.126Z,60.26
2022-08-28T07:14:44.992Z,60.31
2022-08-28T07:17:32.439Z,59.69
2022-08-28T07:20:18.769Z,59.14
2022-08-28T07:23:09.202Z,59.28
2022-08-28T07:25:55.631Z,58.77
2022-08-28T07:28:41.669Z,58.89
2022-08-28T07:31:27.949Z,59.14
2022-08-28T07:34:15.223Z,59.20
2022-08-28T07:37:04.331Z,58.49
2022-08-28T07:39:50.245Z,59.07
2022-08-28T07:42:55.483Z,59.23
2022-08-28T07:45:43.599Z,58.97
2022-08-28T07:48:31.077Z,58.95
2022-08-28T07:51:19.010Z,58.76
2022-08-28T07:54:15.558Z,57.69
2022-08-28T07:57:06.507Z,57.37
2022-08-28T07:59:53.250Z,57.96
2022-08-28T08:02:41.032Z,58.38
2022-08-28T08:05:28.205Z,57.05
2022-08-28T08:08:14.539Z,57.20
2022-08-28T08:11:07.955Z,55.48
2022-08-28T08:14:04.842Z,56.17
2022-08-28T08:16:54.645Z,56.87
2022-08-28T08:19:44.261Z,55.62
2022-08-28T08:22:32.285Z,54.86
2022-08-28T08:25:17.956Z,54.30
2022-08-28T08:28:04.922Z,52.95
2022-08-28T08:30:50.955Z,51.78
2022-08-28T08:33:38.934Z,51.89
2022-08-28T08:36:27.207Z,52.36
2022-08-28T08:39:13.355Z,51.40
2022-08-28T08:42:01.319Z,50.62
2022-08-28T08:44:48.952Z,50.28
2022-08-28T08:47:44.032Z,48.19
2022-08-28T08:50:33.228Z,47.66
2022-08-28T08:53:52.008Z,47.98
2022-08-28T08:56:40.089Z,47.40
2022-08-28T08:59:27.603Z,46.76
2022-08-28T09:02:19.368Z,48.69
2022-08-28T09:05:17.001Z,47.58
2022-08-28T09:08:04.529Z,48.21
2022-08-28T09:11:28.837Z,47.49
2022-08-28T09:14:43.959Z,47.04
2022-08-28T09:17:35.284Z,47.63
2022-08-28T09:20:32.498Z,44.83
2022-08-28T09:23:21.437Z,46.34
2022-08-28T09:26:12.885Z,45.90
2022-08-28T09:29:05.471Z,45.91
2022-08-28T09:31:51.303Z,46.84
2022-08-28T09:34:39.264Z,45.12
2022-08-28T09:37:26.665Z,45.89
2022-08-28T09:40:50.449Z,44.05
2022-08-28T09:43:37.811Z,44.80
2022-08-28T09:46:32.294Z,43.79
2022-08-28T09:49:26.111Z,45.70
2022-08-28T09:52:24.593Z,44.75
2022-08-28T09:55:18.456Z,46.57
2022-08-28T09:58:06.707Z,46.03
2022-08-28T10:01:11.239Z,46.28
2022-08-28T10:04:22.474Z,47.42
2022-08-28T10:07:32.613Z,47.90
2022-08-28T10:10:26.975Z,48.48
2022-08-28T10:13:37.104Z,48.21
2022-08-28T10:16:43.491Z,46.34
2022-08-28T10:19:59.479Z,47.22
2022-08-28T10:22:51.006Z,47.02
2022-08-28T10:25:46.360Z,47.76
2022-08-28T10:28:51.560Z,45.15
2022-08-28T10:31:50.081Z,43.58
2022-08-28T10:35:09.088Z,43.69
2022-08-28T10:38:03.950Z,44.60
2022-08-28T10:41:10.948Z,43.17
2022-08-28T10:44:01.767Z,45.04
2022-08-28T10:46:52.275Z,44.46
2022-08-28T10:49:42.186Z,43.27
2022-08-28T10:52:40.959Z,43.47
2022-08-28T10:55:34.731Z,40.52
2022-08-28T10:58:25.993Z,40.57
2022-08-28T11:01:18.732Z,42.70
2022-08-28T11:04:24.929Z,43.18
2022-08-28T11:07:15.306Z,41.30
2022-08-28T11:10:32.370Z,42.56
2022-08-28T11:13:57.539Z,42.24
2022-08-28T11:16:50.502Z,43.14
2022-08-28T11:19:51.646Z,42.98
2022-08-28T11:22:47.039Z,39.88
2022-08-28T11:25:45.633Z,40.55
2022-08-28T11:28:36.800Z,40.97
2022-08-28T11:31:30.696Z,41.68
2022-08-28T11:34:53.950Z,41.35
2022-08-28T11:37:46.335Z,41.58
2022-08-28T11:40:32.447Z,41.72
2022-08-28T11:43:18.797Z,38.45
2022-08-28T11:46:12.102Z,39.46
2022-08-28T11:49:01.123Z,38.10
2022-08-28T11:51:52.760Z,39.46
2022-08-28T11:55:13.544Z,40.08
2022-08-28T12:01:06.083Z,37.39
2022-08-28T12:03:58.814Z,36.25
2022-08-28T12:06:44.435Z,37.98
2022-08-28T12:09:36.611Z,38.84
2022-08-28T12:12:22.150Z,37.48
2022-08-28T12:15:09.914Z,37.16
2022-08-28T12:18:08.780Z,37.88
2022-08-28T12:20:54.823Z,37.35
2022-08-28T12:24:09.053Z,38.96
2022-08-28T12:26:57.243Z,37.62
2022-08-28T12:29:51.704Z,37.72
2022-08-28T12:32:56.338Z,38.25
2022-08-28T12:35:43.921Z,37.25
2022-08-28T12:38:33.656Z,37.18
2022-08-28T12:41:22.141Z,35.94
2022-08-28T12:44:12.232Z,37.88
2022-08-28T12:46:59.507Z,38.18
2022-08-28T12:49:45.750Z,38.45
2022-08-28T12:52:33.747Z,38.35
2022-08-28T12:55:24.327Z,39.10
2022-08-28T12:58:27.970Z,39.30
2022-08-28T13:01:28.424Z,38.83
2022-08-28T13:04:37.201Z,38.10
2022-08-28T13:07:35.366Z,38.18
2022-08-28T13:10:26.882Z,37.34
2022-08-28T13:13:30.911Z,37.46
2022-08-28T13:16:44.996Z,39.30
2022-08-28T13:19:34.608Z,38.97
2022-08-28T13:22:38.887Z,38.78
2022-08-28T13:25:32.423Z,39.19
2022-08-28T13:28:19.653Z,37.78
2022-08-28T13:31:06.343Z,38.78
2022-08-28T13:34:24.675Z,38.84
2022-08-28T13:38:01.215Z,38.89
2022-08-28T13:40:59.811Z,39.37
2022-08-28T13:43:47.913Z,39.04
2022-08-28T13:46:34.182Z,39.30
2022-08-28T13:49:21.485Z,38.60
2022-08-28T13:52:09.559Z,39.26
2022-08-28T13:54:56.113Z,39.24
2022-08-28T13:57:42.672Z,39.60
2022-08-28T14:00:32.488Z,39.50
2022-08-28T14:03:38.482Z,39.41
2022-08-28T14:06:24.499Z,40.43
2022-08-28T14:09:18.360Z,40.92
2022-08-28T14:12:05.311Z,39.49
2022-08-28T14:14:52.883Z,40.50
2022-08-28T14:17:39.907Z,41.81
2022-08-28T14:20:25.507Z,41.72
2022-08-28T14:23:12.368Z,41.11
2022-08-28T14:26:01.430Z,40.77
2022-08-28T14:28:46.611Z,41.27
2022-08-28T14:31:36.430Z,40.11
2022-08-28T14:34:22.968Z,40.54
2022-08-28T14:37:09.224Z,40.42
2022-08-28T14:39:55.606Z,39.67
2022-08-28T14:42:41.947Z,39.95
2022-08-28T14:45:27.452Z,40.62
2022-08-28T14:48:14.466Z,40.32
2022-08-28T14:51:01.797Z,40.98
2022-08-28T14:53:47.486Z,42.01
2022-08-28T14:56:33.239Z,41.79
2022-08-28T14:59:24.543Z,41.97
2022-08-28T15:02:10.355Z,42.20
2022-08-28T15:04:56.095Z,42.41
2022-08-28T15:07:42.076Z,42.43
2022-08-28T15:10:27.538Z,42.49
2022-08-28T15:13:13.305Z,42.28
2022-08-28T15:16:03.595Z,43.01
2022-08-28T15:18:49.659Z,43.03
2022-08-28T15:21:40.539Z,42.66
2022-08-28T15:24:28.672Z,42.78
2022-08-28T15:27:14.427Z,43.01
2022-08-28T15:29:59.963Z,42.88
2022-08-28T15:32:47.431Z,43.44
2022-08-28T15:35:34.495Z,43.00
2022-08-28T15:38:20.153Z,43.33
2022-08-28T15:41:24.204Z,43.49
2022-08-28T15:44:14.440Z,43.83
2022-08-28T15:47:03.182Z,44.65
2022-08-28T15:49:54.913Z,44.69
2022-08-28T15:52:41.495Z,45.33
2022-08-28T15:55:28.961Z,45.60
2022-08-28T15:58:14.893Z,46.32
2022-08-28T16:01:00.571Z,47.32
2022-08-28T16:03:46.230Z,47.95
2022-08-28T16:06:32.782Z,48.16
2022-08-28T16:09:18.661Z,47.80
2022-08-28T16:12:04.865Z,47.56
2022-08-28T16:14:50.618Z,46.90
2022-08-28T16:17:37.088Z,46.89
2022-08-28T16:20:22.995Z,47.39
2022-08-28T16:23:10.133Z,47.59
2022-08-28T16:25:55.739Z,47.67
2022-08-28T16:28:42.404Z,48.01
2022-08-28T16:31:29.115Z,48.86
2022-08-28T16:34:19.475Z,49.63
2022-08-28T16:37:07.903Z,49.86
2022-08-28T16:39:56.890Z,50.32
2022-08-28T16:42:51.295Z,51.03
2022-08-28T16:45:40.555Z,53.28
2022-08-28T16:48:30.513Z,54.42
2022-08-28T16:51:19.011Z,55.01
2022-08-28T16:54:07.248Z,56.04
2022-08-28T16:56:55.542Z,55.42
2022-08-28T16:59:41.923Z,54.91
2022-08-28T17:02:31.263Z,54.61
2022-08-28T17:05:20.643Z,55.26
2022-08-28T17:08:08.506Z,55.37
2022-08-28T17:10:55.809Z,55.43
2022-08-28T17:13:43.907Z,55.17
2022-08-28T17:16:34.347Z,55.39
2022-08-28T17:19:24.705Z,55.31
2022-08-28T17:22:30.044Z,55.67
2022-08-28T17:25:16.118Z,56.59
2022-08-28T17:28:06.142Z,56.93
2022-08-28T17:30:52.088Z,57.17
2022-08-28T17:33:41.553Z,57.53
2022-08-28T17:36:33.382Z,57.75
2022-08-28T17:39:22.913Z,58.09
2022-08-28T17:42:11.429Z,57.37
2022-08-28T17:44:58.303Z,56.88
2022-08-28T17:47:44.975Z,57.36
2022-08-28T17:50:31.400Z,57.30
2022-08-28T17:53:18.702Z,57.16
2022-08-28T17:56:08.002Z,57.35
2022-08-28T17:58:56.561Z,58.11
2022-08-28T18:01:48.908Z,58.35
2022-08-28T18:04:37.341Z,58.35
2022-08-28T18:07:32.204Z,58.82
2022-08-28T18:10:20.151Z,59.28
2022-08-28T18:13:14.389Z,59.76
2022-08-28T18:16:03.058Z,59.96
2022-08-28T18:18:51.437Z,60.45
2022-08-28T18:23:00.775Z,61.14
2022-08-28T18:25:46.652Z,61.47
2022-08-28T18:28:43.035Z,62.18
2022-08-28T18:31:29.618Z,62.55
2022-08-28T18:34:16.529Z,61.97
2022-08-28T18:37:03.461Z,62.38
2022-08-28T18:39:51.697Z,62.48
2022-08-28T18:42:42.605Z,62.12
2022-08-28T18:45:31.916Z,61.26
2022-08-28T18:48:20.609Z,61.31
2022-08-28T18:51:10.837Z,60.93
2022-08-28T18:54:02.091Z,60.96
2022-08-28T18:57:04.304Z,60.12
2022-08-28T18:59:53.241Z,60.44
2022-08-28T19:02:41.761Z,60.41
2022-08-28T19:05:30.811Z,61.05
2022-08-28T19:08:20.310Z,61.94
2022-08-28T19:11:11.255Z,62.19
2022-08-28T19:14:06.158Z,62.44
2022-08-28T19:16:58.166Z,61.85
2022-08-28T19:19:52.638Z,61.72
2022-08-28T19:22:40.639Z,61.51
2022-08-28T19:25:34.072Z,61.08
2022-08-28T19:28:22.559Z,61.07
2022-08-28T19:31:10.082Z,61.70
2022-08-28T19:33:57.830Z,61.77
2022-08-28T19:36:43.957Z,61.79
2022-08-28T19:39:30.258Z,61.44
2022-08-28T19:42:17.736Z,61.47
2022-08-28T19:45:11.041Z,62.10
2022-08-28T19:47:56.771Z,62.16
2022-08-28T19:50:44.060Z,62.06
2022-08-28T19:53:31.312Z,62.08
2022-08-28T19:56:17.125Z,62.19
2022-08-28T19:59:04.438Z,62.80
2022-08-28T20:01:50.270Z,63.24
2022-08-28T20:04:36.591Z,63.13
2022-08-28T20:07:24.539Z,63.15
2022-08-28T20:10:11.529Z,63.52
2022-08-28T20:12:58.678Z,63.93
2022-08-28T20:15:46.311Z,63.54
2022-08-28T20:18:33.395Z,63.92
2022-08-28T20:21:28.730Z,63.95
2022-08-28T20:24:24.231Z,64.47
2022-08-28T20:27:10.480Z,64.84
2022-08-28T20:29:57.237Z,65.12
2022-08-28T20:32:43.458Z,65.52
2022-08-28T20:35:29.834Z,65.67
2022-08-28T20:38:15.729Z,65.09
2022-08-28T20:41:18.361Z,65.41
2022-08-28T20:44:07.675Z,65.67
2022-08-28T20:46:53.735Z,65.06
2022-08-28T20:49:40.693Z,65.20
2022-08-28T20:52:26.826Z,65.34
2022-08-28T20:55:14.316Z,65.44
2022-08-28T20:58:00.081Z,65.27
2022-08-28T21:00:47.010Z,65.69
2022-08-28T21:03:32.928Z,65.90
2022-08-28T21:06:18.733Z,66.36
2022-08-28T21:12:48.238Z,66.73
2022-08-28T21:15:35.809Z,66.22
2022-08-28T21:18:21.293Z,66.63
2022-08-28T21:21:10.173Z,66.08
2022-08-28T21:23:56.554Z,66.21
2022-08-28T21:26:49.937Z,66.39
2022-08-28T21:29:37.644Z,66.76
2022-08-28T21:32:23.463Z,67.08
2022-08-28T21:35:12.774Z,66.97
2022-08-28T21:38:05.966Z,67.16
2022-08-28T21:41:02.247Z,66.82
2022-08-28T21:43:48.224Z,67.08
2022-08-28T21:46:34.854Z,66.77
2022-08-28T21:49:22.737Z,66.76
2022-08-28T21:52:08.747Z,66.91
2022-08-28T21:55:04.239Z,66.70
2022-08-28T21:57:52.330Z,66.61
2022-08-28T22:00:38.141Z,66.81
2022-08-28T22:03:25.341Z,66.93
2022-08-28T22:06:13.608Z,66.88
2022-08-28T22:09:00.115Z,66.94
2022-08-28T22:11:46.413Z,66.99
2022-08-28T22:14:32.805Z,67.36
2022-08-28T22:17:18.823Z,67.35
2022-08-28T22:20:05.548Z,67.92
2022-08-28T22:23:10.087Z,68.22
2022-08-28T22:25:56.026Z,68.21
2022-08-28T22:28:41.396Z,68.44
2022-08-28T22:31:31.135Z,68.42
2022-08-28T22:34:18.834Z,68.44
2022-08-28T22:37:04.319Z,68.43
2022-08-28T22:39:50.109Z,68.41
2022-08-28T22:42:39.131Z,68.36
2022-08-28T22:45:26.079Z,68.38
2022-08-28T22:48:15.932Z,68.17
2022-08-28T22:51:09.393Z,68.03
2022-08-28T22:53:56.555Z,68.38
2022-08-28T22:56:42.875Z,68.22
2022-08-28T22:59:28.480Z,67.75
2022-08-28T23:02:14.284Z,67.69
2022-08-28T23:04:59.989Z,67.60
2022-08-28T23:07:45.864Z,67.23
2022-08-28T23:10:55.187Z,66.73
2022-08-28T23:13:38.210Z,66.73
2022-08-28T23:16:24.241Z,67.19
2022-08-28T23:19:13.469Z,67.06
2022-08-28T23:21:59.969Z,67.25
2022-08-28T23:24:46.995Z,67.37
2022-08-28T23:27:36.169Z,67.50
2022-08-28T23:30:23.788Z,67.78
2022-08-28T23:33:09.509Z,68.06
2022-08-28T23:35:54.987Z,67.94
2022-08-28T23:38:43.186Z,68.21
2022-08-28T23:41:29.228Z,68.51
2022-08-28T23:44:16.821Z,68.64
2022-08-28T23:47:02.664Z,68.90
2022-08-28T23:49:48.762Z,69.18
2022-08-28T23:52:35.570Z,69.21
2022-08-28T23:55:21.449Z,69.24
2022-08-28T23:58:07.660Z,68.96
